createdAt,value
2023-01-29T00:00:21.279Z,7.65
2023-01-29T00:02:48.136Z,7.63
2023-01-29T00:05:27.113Z,7.72
2023-01-29T00:08:01.982Z,7.25
2023-01-29T00:10:28.537Z,7.95
2023-01-29T00:12:55.256Z,7.85
2023-01-29T00:15:21.875Z,7.47
2023-01-29T00:17:48.437Z,7.95
2023-01-29T00:20:15.928Z,7.85
2023-01-29T00:22:42.681Z,7.65
2023-01-29T00:25:09.567Z,8.13
2023-01-29T00:27:36.225Z,7.80
2023-01-29T00:30:12.962Z,7.60
2023-01-29T00:32:40.478Z,7.05
2023-01-29T00:35:08.353Z,7.70
2023-01-29T00:37:35.438Z,8.32
2023-01-29T00:40:02.027Z,7.43
2023-01-29T00:42:47.126Z,8.18
2023-01-29T00:45:14.134Z,8.18
2023-01-29T00:47:41.018Z,9.07
2023-01-29T00:50:10.502Z,7.88
2023-01-29T00:52:38.502Z,7.18
2023-01-29T00:55:06.298Z,8.02
2023-01-29T00:57:34.286Z,7.30
2023-01-29T01:00:01.633Z,8.98
2023-01-29T01:02:46.944Z,7.20
2023-01-29T01:05:18.330Z,7.70
2023-01-29T01:07:56.332Z,6.82
2023-01-29T01:10:32.415Z,6.72
2023-01-29T01:13:07.010Z,6.07
2023-01-29T01:15:36.615Z,6.03
2023-01-29T01:18:04.034Z,6.63
2023-01-29T01:20:34.013Z,7.00
2023-01-29T01:23:00.786Z,6.28
2023-01-29T01:25:27.605Z,6.63
2023-01-29T01:27:56.299Z,5.55
2023-01-29T01:30:24.260Z,5.22
2023-01-29T01:32:51.256Z,5.03
2023-01-29T01:35:18.304Z,5.82
2023-01-29T01:37:44.874Z,5.63
2023-01-29T01:40:21.490Z,5.88
2023-01-29T01:42:58.875Z,4.97
2023-01-29T01:45:32.648Z,6.38
2023-01-29T01:48:26.236Z,5.18
2023-01-29T01:51:00.753Z,4.68
2023-01-29T01:53:35.080Z,4.53
2023-01-29T01:56:06.609Z,4.60
2023-01-29T01:58:38.195Z,4.93
2023-01-29T02:01:07.908Z,5.65
2023-01-29T02:04:08.956Z,5.20
2023-01-29T02:06:57.582Z,5.22
2023-01-29T02:09:33.413Z,5.68
2023-01-29T02:12:01.154Z,5.70
2023-01-29T02:14:28.049Z,5.78
2023-01-29T02:16:54.986Z,5.55
2023-01-29T02:19:52.352Z,5.10
2023-01-29T02:22:40.423Z,5.90
2023-01-29T02:25:31.829Z,5.95
2023-01-29T02:28:21.554Z,4.72
2023-01-29T02:30:57.166Z,5.68
2023-01-29T02:33:53.853Z,5.50
2023-01-29T02:36:40.904Z,5.18
2023-01-29T02:39:32.476Z,5.95
2023-01-29T02:42:11.790Z,6.32
2023-01-29T02:44:38.787Z,5.65
2023-01-29T02:47:25.574Z,4.97
2023-01-29T02:50:03.249Z,5.28
2023-01-29T02:52:40.217Z,5.00
2023-01-29T02:55:13.559Z,5.13
2023-01-29T02:57:44.475Z,5.70
2023-01-29T03:00:11.185Z,5.13
2023-01-29T03:03:02.784Z,6.53
2023-01-29T03:05:43.477Z,5.97
2023-01-29T03:08:15.701Z,6.40
2023-01-29T03:10:57.487Z,6.13
2023-01-29T03:13:38.469Z,5.53
2023-01-29T03:16:19.043Z,5.70
2023-01-29T03:18:52.081Z,5.78
2023-01-29T03:21:49.929Z,5.47
2023-01-29T03:24:54.614Z,5.07
2023-01-29T03:27:46.282Z,5.60
2023-01-29T03:30:35.478Z,5.45
2023-01-29T03:36:02.747Z,5.65
2023-01-29T03:38:32.172Z,5.03
2023-01-29T03:41:36.778Z,5.30
2023-01-29T03:44:28.157Z,5.03
2023-01-29T03:47:21.023Z,6.15
2023-01-29T03:50:24.821Z,4.93
2023-01-29T03:53:00.220Z,5.25
2023-01-29T03:56:07.212Z,5.40
2023-01-29T03:58:45.711Z,5.45
2023-01-29T04:01:38.963Z,5.63
2023-01-29T04:04:14.092Z,5.37
2023-01-29T04:06:45.670Z,5.18
2023-01-29T04:09:27.772Z,5.38
2023-01-29T04:12:02.025Z,5.83
2023-01-29T04:14:31.860Z,5.95
2023-01-29T04:17:02.837Z,5.50
2023-01-29T04:19:41.971Z,5.60
2023-01-29T04:22:19.981Z,5.45
2023-01-29T04:24:49.065Z,4.82
2023-01-29T04:27:23.713Z,5.70
2023-01-29T04:30:04.425Z,5.00
2023-01-29T04:35:31.600Z,5.80
2023-01-29T04:38:12.850Z,5.75
2023-01-29T04:40:51.102Z,5.15
2023-01-29T04:43:37.176Z,5.75
2023-01-29T04:46:18.326Z,5.28
2023-01-29T04:49:01.589Z,5.25
2023-01-29T04:51:55.719Z,5.45
2023-01-29T04:54:28.537Z,6.80
2023-01-29T04:56:55.017Z,5.60
2023-01-29T04:59:50.951Z,5.13
2023-01-29T05:02:19.515Z,5.55
2023-01-29T05:04:48.247Z,5.88
2023-01-29T05:07:17.339Z,6.55
2023-01-29T05:09:46.575Z,5.85
2023-01-29T05:12:15.772Z,6.13
2023-01-29T05:14:45.240Z,5.90
2023-01-29T05:17:18.524Z,6.03
2023-01-29T05:19:46.005Z,5.57
2023-01-29T05:22:15.792Z,5.85
2023-01-29T05:24:42.456Z,5.40
2023-01-29T05:27:36.874Z,5.45
2023-01-29T05:30:04.332Z,5.50
2023-01-29T05:32:31.113Z,6.20
2023-01-29T05:34:57.884Z,7.10
2023-01-29T05:37:24.508Z,6.68
2023-01-29T05:39:51.130Z,6.45
2023-01-29T05:42:17.781Z,6.28
2023-01-29T05:44:44.386Z,5.78
2023-01-29T05:47:11.037Z,5.63
2023-01-29T05:49:38.785Z,5.88
2023-01-29T05:52:05.525Z,5.53
2023-01-29T05:54:32.107Z,5.22
2023-01-29T05:56:58.656Z,5.57
2023-01-29T05:59:25.274Z,5.60
2023-01-29T06:01:51.812Z,6.22
2023-01-29T06:04:18.402Z,5.97
2023-01-29T06:06:44.931Z,5.80
2023-01-29T06:09:11.895Z,5.35
2023-01-29T06:11:38.457Z,5.22
2023-01-29T06:14:05.343Z,5.38
2023-01-29T06:16:32.027Z,4.85
2023-01-29T06:18:58.610Z,5.20
2023-01-29T06:21:25.177Z,4.20
2023-01-29T06:23:54.958Z,4.50
2023-01-29T06:26:21.536Z,5.45
2023-01-29T06:28:51.215Z,4.88
2023-01-29T06:31:37.713Z,6.15
2023-01-29T06:34:05.289Z,5.13
2023-01-29T06:36:31.835Z,4.18
2023-01-29T06:38:58.395Z,4.57
2023-01-29T06:41:25.655Z,4.43
2023-01-29T06:43:54.291Z,3.72
2023-01-29T06:46:20.885Z,4.13
2023-01-29T06:48:47.677Z,4.43
2023-01-29T06:51:14.346Z,4.18
2023-01-29T06:53:41.762Z,4.40
2023-01-29T06:56:09.356Z,3.88
2023-01-29T06:58:39.215Z,3.75
2023-01-29T07:01:17.381Z,3.75
2023-01-29T07:03:52.093Z,3.45
2023-01-29T07:06:19.319Z,4.35
2023-01-29T07:08:45.888Z,4.38
2023-01-29T07:11:12.583Z,3.92
2023-01-29T07:13:39.240Z,4.47
2023-01-29T07:16:07.076Z,4.68
2023-01-29T07:18:33.677Z,4.00
2023-01-29T07:21:04.341Z,3.72
2023-01-29T07:23:30.939Z,4.05
2023-01-29T07:26:01.137Z,4.07
2023-01-29T07:28:28.072Z,3.42
2023-01-29T07:30:59.252Z,3.83
2023-01-29T07:33:25.912Z,3.97
2023-01-29T07:35:53.120Z,4.72
2023-01-29T07:38:20.191Z,3.60
2023-01-29T07:40:47.039Z,3.80
2023-01-29T07:43:13.939Z,3.85
2023-01-29T07:45:40.704Z,3.67
2023-01-29T07:48:11.247Z,3.83
2023-01-29T07:50:38.433Z,4.50
2023-01-29T07:53:05.038Z,3.60
2023-01-29T07:55:33.044Z,3.83
2023-01-29T07:58:01.579Z,4.30
2023-01-29T08:00:29.186Z,4.05
2023-01-29T08:03:02.763Z,3.47
2023-01-29T08:05:29.490Z,4.15
2023-01-29T08:08:06.027Z,3.05
2023-01-29T08:10:34.754Z,2.90
2023-01-29T08:13:02.653Z,2.67
2023-01-29T08:15:30.180Z,3.42
2023-01-29T08:17:58.215Z,3.72
2023-01-29T08:20:25.598Z,3.17
2023-01-29T08:23:00.170Z,3.75
2023-01-29T08:25:27.540Z,3.50
2023-01-29T08:27:55.817Z,3.53
2023-01-29T08:30:22.419Z,3.60
2023-01-29T08:32:49.005Z,3.15
2023-01-29T08:35:15.619Z,3.00
2023-01-29T08:37:42.184Z,3.10
2023-01-29T08:40:10.903Z,3.08
2023-01-29T08:42:37.510Z,3.15
2023-01-29T08:45:04.849Z,3.15
2023-01-29T08:47:31.425Z,2.40
2023-01-29T08:49:57.970Z,3.90
2023-01-29T08:52:24.747Z,3.20
2023-01-29T08:54:51.300Z,3.05
2023-01-29T08:57:17.839Z,2.85
2023-01-29T08:59:44.439Z,2.40
2023-01-29T09:02:11.959Z,2.88
2023-01-29T09:04:38.530Z,3.22
2023-01-29T09:07:05.108Z,2.75
2023-01-29T09:09:31.649Z,3.05
2023-01-29T09:11:58.190Z,2.83
2023-01-29T09:14:24.870Z,2.40
2023-01-29T09:16:51.491Z,3.15
2023-01-29T09:19:18.333Z,3.38
2023-01-29T09:21:45.980Z,3.63
2023-01-29T09:24:12.573Z,3.33
2023-01-29T09:26:40.186Z,2.90
2023-01-29T09:29:07.172Z,2.55
2023-01-29T09:31:34.126Z,3.03
2023-01-29T09:34:00.930Z,2.60
2023-01-29T09:36:27.481Z,3.08
2023-01-29T09:38:54.035Z,2.90
2023-01-29T09:41:27.428Z,2.38
2023-01-29T09:44:02.110Z,2.33
2023-01-29T09:46:41.084Z,3.08
2023-01-29T09:49:15.624Z,2.60
2023-01-29T09:51:46.592Z,2.60
2023-01-29T09:54:31.989Z,2.80
2023-01-29T09:56:58.789Z,3.03
2023-01-29T09:59:29.883Z,3.00
2023-01-29T10:02:33.827Z,2.53
2023-01-29T10:05:25.591Z,3.92
2023-01-29T10:08:05.316Z,4.43
2023-01-29T10:10:51.484Z,4.43
2023-01-29T10:13:46.408Z,4.75
2023-01-29T10:16:34.595Z,3.35
2023-01-29T10:19:12.856Z,3.35
2023-01-29T10:22:01.066Z,2.80
2023-01-29T10:24:39.248Z,2.63
2023-01-29T10:27:14.409Z,3.20
2023-01-29T10:29:43.243Z,3.00
2023-01-29T10:32:16.641Z,3.80
2023-01-29T10:34:49.766Z,3.20
2023-01-29T10:37:21.580Z,2.80
2023-01-29T10:42:30.974Z,3.10
2023-01-29T10:45:23.186Z,3.80
2023-01-29T10:48:08.557Z,3.58
2023-01-29T10:51:01.862Z,3.33
2023-01-29T10:53:52.823Z,3.30
2023-01-29T10:56:40.308Z,3.25
2023-01-29T10:59:37.516Z,3.10
2023-01-29T11:02:15.279Z,2.67
2023-01-29T11:04:41.838Z,2.60
2023-01-29T11:07:08.749Z,2.83
2023-01-29T11:09:44.101Z,3.20
2023-01-29T11:12:16.699Z,2.90
2023-01-29T11:14:52.835Z,3.30
2023-01-29T11:17:24.786Z,3.30
2023-01-29T11:19:53.248Z,3.78
2023-01-29T11:22:27.867Z,4.00
2023-01-29T11:25:32.500Z,2.53
2023-01-29T11:28:01.820Z,2.88
2023-01-29T11:30:37.220Z,2.70
2023-01-29T11:33:23.590Z,3.55
2023-01-29T11:35:52.593Z,3.30
2023-01-29T11:38:24.069Z,2.42
2023-01-29T11:40:51.425Z,3.30
2023-01-29T11:43:31.109Z,2.70
2023-01-29T11:46:02.794Z,2.85
2023-01-29T11:48:40.641Z,3.38
2023-01-29T11:51:09.920Z,2.67
2023-01-29T11:53:38.041Z,3.08
2023-01-29T11:56:17.223Z,2.97
2023-01-29T11:58:45.861Z,3.30
2023-01-29T12:01:16.712Z,3.17
2023-01-29T12:03:54.948Z,2.87
2023-01-29T12:06:33.097Z,3.20
2023-01-29T12:09:02.493Z,3.40
2023-01-29T12:11:31.763Z,2.95
2023-01-29T12:14:04.283Z,2.70
2023-01-29T12:16:49.715Z,3.13
2023-01-29T12:19:57.170Z,2.70
2023-01-29T12:22:33.397Z,3.00
2023-01-29T12:25:22.269Z,2.58
2023-01-29T12:28:09.467Z,3.22
2023-01-29T12:31:10.155Z,3.20
2023-01-29T12:34:15.366Z,2.92
2023-01-29T12:36:59.502Z,2.80
2023-01-29T12:39:26.351Z,2.72
2023-01-29T12:42:09.446Z,2.90
2023-01-29T12:44:45.052Z,2.92
2023-01-29T12:47:19.047Z,2.50
2023-01-29T12:49:51.332Z,3.13
2023-01-29T12:52:38.013Z,2.75
2023-01-29T12:55:16.425Z,2.88
2023-01-29T12:57:51.827Z,3.15
2023-01-29T13:00:22.944Z,3.22
2023-01-29T13:02:59.539Z,2.85
2023-01-29T13:05:38.535Z,2.90
2023-01-29T13:08:14.529Z,3.45
2023-01-29T13:10:45.370Z,2.58
2023-01-29T13:13:33.089Z,2.40
2023-01-29T13:16:01.265Z,2.78
2023-01-29T13:18:47.901Z,2.85
2023-01-29T13:21:25.123Z,2.90
2023-01-29T13:23:56.326Z,2.65
2023-01-29T13:26:23.380Z,2.65
2023-01-29T13:28:51.809Z,3.17
2023-01-29T13:31:28.599Z,3.03
2023-01-29T13:34:15.251Z,3.08
2023-01-29T13:36:48.595Z,2.90
2023-01-29T13:39:44.509Z,3.25
2023-01-29T13:42:24.995Z,3.25
2023-01-29T13:44:55.393Z,3.33
2023-01-29T13:47:34.359Z,2.90
2023-01-29T13:50:25.831Z,3.05
2023-01-29T13:52:54.362Z,3.38
2023-01-29T13:55:30.957Z,2.60
2023-01-29T13:57:59.801Z,3.25
2023-01-29T14:00:35.169Z,3.45
2023-01-29T14:03:01.693Z,2.85
2023-01-29T14:05:31.072Z,3.10
2023-01-29T14:08:09.935Z,3.10
2023-01-29T14:10:41.668Z,3.20
2023-01-29T14:13:11.354Z,4.00
2023-01-29T14:15:41.668Z,3.80
2023-01-29T14:18:08.274Z,3.25
2023-01-29T14:20:45.987Z,3.83
2023-01-29T14:23:40.390Z,3.60
2023-01-29T14:26:26.126Z,3.17
2023-01-29T14:29:03.120Z,3.85
2023-01-29T14:31:35.441Z,3.20
2023-01-29T14:34:14.813Z,3.75
2023-01-29T14:36:43.280Z,3.63
2023-01-29T14:39:29.608Z,3.60
2023-01-29T14:41:59.926Z,3.67
2023-01-29T14:44:47.062Z,3.45
2023-01-29T14:47:49.285Z,3.53
2023-01-29T14:50:18.783Z,4.38
2023-01-29T14:52:48.021Z,3.65
2023-01-29T14:55:31.271Z,4.07
2023-01-29T14:57:59.222Z,3.63
2023-01-29T15:00:34.377Z,3.40
2023-01-29T15:03:04.240Z,3.75
2023-01-29T15:05:36.163Z,3.65
2023-01-29T15:08:30.016Z,3.75
2023-01-29T15:11:19.106Z,3.95
2023-01-29T15:13:52.128Z,3.92
2023-01-29T15:16:32.457Z,3.45
2023-01-29T15:19:13.527Z,3.13
2023-01-29T15:21:40.094Z,3.87
2023-01-29T15:24:07.355Z,3.03
2023-01-29T15:26:36.519Z,3.25
2023-01-29T15:29:04.867Z,3.58
2023-01-29T15:31:32.233Z,5.93
2023-01-29T15:34:04.907Z,5.18
2023-01-29T15:36:32.905Z,6.18
2023-01-29T15:39:23.395Z,5.50
2023-01-29T15:42:06.913Z,7.40
2023-01-29T15:44:34.730Z,7.00
2023-01-29T15:47:02.128Z,5.95
2023-01-29T15:49:35.275Z,6.57
2023-01-29T15:52:16.706Z,7.35
2023-01-29T15:54:43.679Z,7.20
2023-01-29T15:57:20.421Z,7.47
2023-01-29T15:59:51.751Z,8.32
2023-01-29T16:02:37.634Z,7.78
2023-01-29T16:05:14.077Z,7.85
2023-01-29T16:07:41.821Z,8.25
2023-01-29T16:10:17.476Z,8.05
2023-01-29T16:12:47.415Z,7.00
2023-01-29T16:15:28.000Z,8.00
2023-01-29T16:17:54.585Z,8.00
2023-01-29T16:20:34.827Z,7.57
2023-01-29T16:23:01.427Z,8.68
2023-01-29T16:25:29.348Z,7.72
2023-01-29T16:27:56.665Z,7.88
2023-01-29T16:30:27.671Z,6.82
2023-01-29T16:33:01.846Z,7.60
2023-01-29T16:35:28.548Z,7.35
2023-01-29T16:38:02.660Z,7.65
2023-01-29T16:40:33.198Z,7.50
2023-01-29T16:43:45.574Z,7.55
2023-01-29T16:46:34.473Z,9.63
2023-01-29T16:49:01.759Z,8.68
2023-01-29T16:51:30.172Z,8.27
2023-01-29T16:54:18.364Z,8.23
2023-01-29T16:56:46.683Z,7.82
2023-01-29T16:59:20.537Z,7.70
2023-01-29T17:01:49.576Z,7.68
2023-01-29T17:04:18.372Z,7.68
2023-01-29T17:06:48.596Z,7.75
2023-01-29T17:09:27.113Z,8.55
2023-01-29T17:11:56.613Z,8.45
2023-01-29T17:14:26.104Z,8.35
2023-01-29T17:17:04.126Z,7.35
2023-01-29T17:19:31.256Z,7.20
2023-01-29T17:22:01.163Z,8.68
2023-01-29T17:24:34.107Z,8.77
2023-01-29T17:27:01.872Z,8.63
2023-01-29T17:29:30.561Z,8.80
2023-01-29T17:31:59.945Z,8.73
2023-01-29T17:34:26.758Z,8.90
2023-01-29T17:36:53.301Z,9.52
2023-01-29T17:39:22.643Z,7.03
2023-01-29T17:41:54.979Z,9.23
2023-01-29T17:44:22.314Z,8.80
2023-01-29T17:46:49.476Z,8.43
2023-01-29T17:49:26.119Z,8.27
2023-01-29T17:51:54.186Z,8.18
2023-01-29T17:57:15.557Z,8.32
2023-01-29T17:59:45.594Z,8.50
2023-01-29T18:02:28.993Z,8.27
2023-01-29T18:04:56.484Z,7.30
2023-01-29T18:07:23.087Z,7.60
2023-01-29T18:09:49.701Z,7.47
2023-01-29T18:12:16.261Z,8.63
2023-01-29T18:14:42.880Z,9.60
2023-01-29T18:17:13.605Z,8.43
2023-01-29T18:19:42.759Z,7.85
2023-01-29T18:22:17.333Z,8.40
2023-01-29T18:24:44.275Z,9.05
2023-01-29T18:27:11.625Z,9.27
2023-01-29T18:29:38.496Z,8.98
2023-01-29T18:32:05.649Z,10.23
2023-01-29T18:34:32.474Z,10.98
2023-01-29T18:37:00.272Z,12.05
2023-01-29T18:39:27.018Z,8.90
2023-01-29T18:41:53.963Z,9.10
2023-01-29T18:44:20.726Z,8.30
2023-01-29T18:46:47.611Z,8.23
2023-01-29T18:49:16.857Z,9.55
2023-01-29T18:51:43.774Z,8.35
2023-01-29T18:54:13.196Z,7.00
2023-01-29T18:57:13.105Z,7.40
2023-01-29T18:59:26.563Z,10.25
2023-01-29T19:01:53.409Z,8.05
2023-01-29T19:04:20.249Z,7.93
2023-01-29T19:06:47.073Z,9.80
2023-01-29T19:09:13.759Z,11.10
2023-01-29T19:11:40.520Z,9.07
2023-01-29T19:14:07.282Z,10.35
2023-01-29T19:16:34.030Z,10.52
2023-01-29T19:19:00.892Z,10.75
2023-01-29T19:21:28.458Z,11.05
2023-01-29T19:23:55.404Z,11.48
2023-01-29T19:26:22.243Z,10.30
2023-01-29T19:28:49.182Z,11.95
2023-01-29T19:31:16.049Z,12.38
2023-01-29T19:33:42.824Z,12.93
2023-01-29T19:36:09.741Z,13.32
2023-01-29T19:38:38.796Z,14.25
2023-01-29T19:41:05.739Z,13.88
2023-01-29T19:43:32.702Z,12.40
2023-01-29T19:46:00.477Z,14.15
2023-01-29T19:48:28.052Z,12.35
2023-01-29T19:51:09.385Z,12.15
2023-01-29T19:53:38.277Z,13.05
2023-01-29T19:56:14.875Z,11.40
2023-01-29T19:58:41.669Z,13.38
2023-01-29T20:01:14.466Z,14.52
2023-01-29T20:03:42.187Z,14.00
2023-01-29T20:06:09.512Z,13.02
2023-01-29T20:08:36.483Z,11.68
2023-01-29T20:11:05.477Z,14.50
2023-01-29T20:13:33.155Z,12.48
2023-01-29T20:16:03.929Z,13.65
2023-01-29T20:18:31.496Z,12.87
2023-01-29T20:20:58.844Z,14.13
2023-01-29T20:23:37.207Z,14.77
2023-01-29T20:26:06.275Z,15.25
2023-01-29T20:28:33.288Z,11.32
2023-01-29T20:31:00.480Z,13.23
2023-01-29T20:33:27.320Z,10.50
2023-01-29T20:35:59.685Z,13.75
2023-01-29T20:38:31.838Z,12.25
2023-01-29T20:41:04.933Z,12.05
2023-01-29T20:43:32.308Z,11.15
2023-01-29T20:45:59.490Z,11.65
2023-01-29T20:48:26.778Z,11.85
2023-01-29T20:50:54.404Z,11.65
2023-01-29T20:53:21.189Z,11.27
2023-01-29T20:55:48.061Z,13.85
2023-01-29T20:58:15.238Z,13.13
2023-01-29T21:00:41.965Z,13.38
2023-01-29T21:03:09.080Z,11.27
2023-01-29T21:05:35.742Z,11.18
2023-01-29T21:08:02.622Z,12.43
2023-01-29T21:10:29.312Z,14.55
2023-01-29T21:12:55.990Z,13.55
2023-01-29T21:15:24.684Z,13.93
2023-01-29T21:17:52.430Z,13.48
2023-01-29T21:20:19.492Z,14.43
2023-01-29T21:22:49.016Z,12.63
2023-01-29T21:25:15.985Z,10.65
2023-01-29T21:27:42.721Z,11.05
2023-01-29T21:30:10.181Z,10.63
2023-01-29T21:32:36.853Z,9.82
2023-01-29T21:35:03.912Z,11.07
2023-01-29T21:37:30.625Z,10.80
2023-01-29T21:39:57.317Z,10.38
2023-01-29T21:42:42.498Z,12.02
2023-01-29T21:45:09.769Z,12.93
2023-01-29T21:47:36.513Z,10.75
2023-01-29T21:50:03.405Z,10.65
2023-01-29T21:52:30.153Z,10.48
2023-01-29T21:54:57.047Z,10.65
2023-01-29T21:57:26.562Z,10.07
2023-01-29T21:59:54.144Z,10.23
2023-01-29T22:02:22.517Z,8.52
2023-01-29T22:04:50.381Z,8.30
2023-01-29T22:07:17.089Z,9.02
2023-01-29T22:09:44.139Z,8.65
2023-01-29T22:12:11.274Z,8.70
2023-01-29T22:14:37.946Z,7.03
2023-01-29T22:17:04.976Z,8.05
2023-01-29T22:19:31.921Z,10.02
2023-01-29T22:21:58.616Z,8.82
2023-01-29T22:24:25.385Z,8.52
2023-01-29T22:26:52.107Z,9.15
2023-01-29T22:29:19.604Z,9.15
2023-01-29T22:31:46.880Z,8.07
2023-01-29T22:34:14.798Z,8.20
2023-01-29T22:36:41.454Z,6.85
2023-01-29T22:39:08.757Z,8.60
2023-01-29T22:41:36.188Z,8.27
2023-01-29T22:44:03.454Z,8.45
2023-01-29T22:46:30.319Z,8.57
2023-01-29T22:48:57.284Z,9.13
2023-01-29T22:51:23.983Z,8.55
2023-01-29T22:53:53.038Z,9.85
2023-01-29T22:56:22.098Z,9.05
2023-01-29T22:58:53.721Z,9.73
2023-01-29T23:01:22.457Z,8.32
2023-01-29T23:03:49.159Z,8.73
2023-01-29T23:06:17.197Z,8.07
2023-01-29T23:08:44.055Z,9.27
2023-01-29T23:11:18.598Z,8.90
2023-01-29T23:13:52.849Z,9.70
2023-01-29T23:16:22.098Z,9.27
2023-01-29T23:18:56.801Z,8.05
2023-01-29T23:21:25.115Z,8.68
2023-01-29T23:23:52.517Z,8.40
2023-01-29T23:26:37.751Z,9.32
2023-01-29T23:29:04.502Z,10.30
2023-01-29T23:31:32.035Z,9.75
2023-01-29T23:33:58.767Z,11.35
2023-01-29T23:36:25.569Z,11.98
2023-01-29T23:38:52.229Z,10.82
2023-01-29T23:41:18.910Z,10.75
2023-01-29T23:43:45.651Z,11.07
2023-01-29T23:46:12.484Z,10.35
2023-01-29T23:48:39.169Z,10.27
2023-01-29T23:51:05.998Z,12.15
2023-01-29T23:53:32.672Z,11.27
2023-01-29T23:56:04.157Z,9.07
2023-01-29T23:58:32.393Z,9.40
